sensor_id;sensor_type;location;lat;lon;timestamp;pressure;altitude;pressure_sealevel;temperature;humidity
48614;BME280;34408;51.426;5.444;2023-02-12T00:01:07;103777.78;;;9.11;67.05
48614;BME280;34408;51.426;5.444;2023-02-12T00:03:37;103776.94;;;9.11;66.51
48614;BME280;34408;51.426;5.444;2023-02-12T00:06:05;103776.94;;;9.11;67.15
48614;BME280;34408;51.426;5.444;2023-02-12T00:08:33;103778.78;;;9.10;66.67
48614;BME280;34408;51.426;5.444;2023-02-12T00:11:07;103777.09;;;9.09;66.45
48614;BME280;34408;51.426;5.444;2023-02-12T00:13:35;103774.41;;;9.09;67.31
48614;BME280;34408;51.426;5.444;2023-02-12T00:16:05;103787.81;;;9.09;67.22
48614;BME280;34408;51.426;5.444;2023-02-12T00:18:33;103778.06;;;9.08;67.05
48614;BME280;34408;51.426;5.444;2023-02-12T00:21:03;103786.13;;;9.08;66.58
48614;BME280;34408;51.426;5.444;2023-02-12T00:23:31;103784.41;;;9.07;67.10
48614;BME280;34408;51.426;5.444;2023-02-12T00:25:59;103788.09;;;9.06;67.18
48614;BME280;34408;51.426;5.444;2023-02-12T00:28:27;103781.03;;;9.05;66.80
48614;BME280;34408;51.426;5.444;2023-02-12T00:30:54;103782.72;;;9.06;66.79
48614;BME280;34408;51.426;5.444;2023-02-12T00:33:22;103785.41;;;9.06;67.43
48614;BME280;34408;51.426;5.444;2023-02-12T00:35:54;103786.41;;;9.05;67.01
48614;BME280;34408;51.426;5.444;2023-02-12T00:38:24;103787.38;;;9.04;67.14
48614;BME280;34408;51.426;5.444;2023-02-12T00:40:51;103790.06;;;9.04;67.20
48614;BME280;34408;51.426;5.444;2023-02-12T00:43:19;103783.00;;;9.03;67.30
48614;BME280;34408;51.426;5.444;2023-02-12T00:45:47;103785.81;;;9.02;66.68
48614;BME280;34408;51.426;5.444;2023-02-12T00:48:15;103789.50;;;9.01;67.52
48614;BME280;34408;51.426;5.444;2023-02-12T00:50:44;103784.00;;;9.02;67.02
48614;BME280;34408;51.426;5.444;2023-02-12T00:53:12;103783.16;;;9.02;67.20
48614;BME280;34408;51.426;5.444;2023-02-12T00:55:41;103785.97;;;9.00;66.88
48614;BME280;34408;51.426;5.444;2023-02-12T00:58:10;103791.19;;;9.02;67.47
48614;BME280;34408;51.426;5.444;2023-02-12T01:00:38;103787.66;;;9.01;66.91
48614;BME280;34408;51.426;5.444;2023-02-12T01:03:06;103791.34;;;9.00;66.84
48614;BME280;34408;51.426;5.444;2023-02-12T01:05:34;103777.06;;;9.00;66.79
48614;BME280;34408;51.426;5.444;2023-02-12T01:08:03;103792.31;;;8.99;66.93
48614;BME280;34408;51.426;5.444;2023-02-12T01:10:31;103788.78;;;8.99;67.17
48614;BME280;34408;51.426;5.444;2023-02-12T01:13:00;103787.94;;;8.98;66.79
48614;BME280;34408;51.426;5.444;2023-02-12T01:15:28;103783.56;;;8.97;66.88
48614;BME280;34408;51.426;5.444;2023-02-12T01:17:55;103781.72;;;8.98;66.86
48614;BME280;34408;51.426;5.444;2023-02-12T01:20:24;103787.09;;;8.98;66.84
48614;BME280;34408;51.426;5.444;2023-02-12T01:22:52;103783.56;;;8.97;66.68
48614;BME280;34408;51.426;5.444;2023-02-12T01:25:20;103777.34;;;8.97;67.51
48614;BME280;34408;51.426;5.444;2023-02-12T01:27:48;103783.69;;;8.96;66.90
48614;BME280;34408;51.426;5.444;2023-02-12T01:30:17;103782.72;;;8.97;67.06
48614;BME280;34408;51.426;5.444;2023-02-12T01:32:47;103795.28;;;8.96;67.06
48614;BME280;34408;51.426;5.444;2023-02-12T01:35:15;103789.91;;;8.96;67.09
48614;BME280;34408;51.426;5.444;2023-02-12T01:37:43;103788.34;;;8.94;67.30
48614;BME280;34408;51.426;5.444;2023-02-12T01:40:14;103774.94;;;8.94;67.11
48614;BME280;34408;51.426;5.444;2023-02-12T01:42:42;103780.44;;;8.92;66.70
48614;BME280;34408;51.426;5.444;2023-02-12T01:45:43;103771.41;;;8.93;67.07
48614;BME280;34408;51.426;5.444;2023-02-12T01:48:13;103774.09;;;8.93;67.02
48614;BME280;34408;51.426;5.444;2023-02-12T01:50:43;103768.03;;;8.91;66.90
48614;BME280;34408;51.426;5.444;2023-02-12T01:53:13;103763.38;;;8.93;67.02
48614;BME280;34408;51.426;5.444;2023-02-12T01:55:50;103759.72;;;8.94;66.77
48614;BME280;34408;51.426;5.444;2023-02-12T01:58:20;103762.38;;;8.94;66.66
48614;BME280;34408;51.426;5.444;2023-02-12T02:00:50;103759.72;;;8.94;66.65
48614;BME280;34408;51.426;5.444;2023-02-12T02:03:18;103760.84;;;8.92;67.47
48614;BME280;34408;51.426;5.444;2023-02-12T02:05:51;103758.16;;;8.92;67.13
48614;BME280;34408;51.426;5.444;2023-02-12T02:08:22;103761.69;;;8.92;67.00
48614;BME280;34408;51.426;5.444;2023-02-12T02:10:50;103757.16;;;8.93;66.85
48614;BME280;34408;51.426;5.444;2023-02-12T02:13:18;103754.47;;;8.93;66.83
48614;BME280;34408;51.426;5.444;2023-02-12T02:16:11;103756.31;;;8.92;66.74
48614;BME280;34408;51.426;5.444;2023-02-12T02:18:47;103759.00;;;8.92;66.77
48614;BME280;34408;51.426;5.444;2023-02-12T02:21:47;103761.69;;;8.92;67.27
48614;BME280;34408;51.426;5.444;2023-02-12T02:24:55;103759.84;;;8.93;67.33
48614;BME280;34408;51.426;5.444;2023-02-12T02:27:39;103763.50;;;8.92;67.04
48614;BME280;34408;51.426;5.444;2023-02-12T02:30:38;103768.44;;;8.87;66.89
48614;BME280;34408;51.426;5.444;2023-02-12T02:33:32;103771.00;;;8.88;67.62
48614;BME280;34408;51.426;5.444;2023-02-12T02:36:13;103765.50;;;8.90;67.35
48614;BME280;34408;51.426;5.444;2023-02-12T02:38:43;103769.16;;;8.89;67.29
48614;BME280;34408;51.426;5.444;2023-02-12T02:41:16;103767.31;;;8.89;67.51
48614;BME280;34408;51.426;5.444;2023-02-12T02:43:49;103762.66;;;8.91;67.25
48614;BME280;34408;51.426;5.444;2023-02-12T02:46:24;103766.34;;;8.90;67.11
48614;BME280;34408;51.426;5.444;2023-02-12T02:48:55;103767.31;;;8.89;67.51
48614;BME280;34408;51.426;5.444;2023-02-12T02:51:27;103762.81;;;8.90;67.15
48614;BME280;34408;51.426;5.444;2023-02-12T02:54:02;103770.00;;;8.89;66.65
48614;BME280;34408;51.426;5.444;2023-02-12T02:56:33;103763.78;;;8.89;67.09
48614;BME280;34408;51.426;5.444;2023-02-12T02:59:06;103762.94;;;8.88;67.50
48614;BME280;34408;51.426;5.444;2023-02-12T03:01:41;103766.47;;;8.89;67.02
48614;BME280;34408;51.426;5.444;2023-02-12T03:04:15;103762.94;;;8.88;66.68
48614;BME280;34408;51.426;5.444;2023-02-12T03:06:52;103756.72;;;8.88;67.45
48614;BME280;34408;51.426;5.444;2023-02-12T03:09:23;103756.72;;;8.88;66.63
48614;BME280;34408;51.426;5.444;2023-02-12T03:11:55;103762.94;;;8.88;67.39
48614;BME280;34408;51.426;5.444;2023-02-12T03:14:27;103758.56;;;8.87;66.73
48614;BME280;34408;51.426;5.444;2023-02-12T03:17:00;103752.34;;;8.87;67.53
48614;BME280;34408;51.426;5.444;2023-02-12T03:19:32;103742.75;;;8.84;66.76
48614;BME280;34408;51.426;5.444;2023-02-12T03:22:05;103760.53;;;8.85;67.13
48614;BME280;34408;51.426;5.444;2023-02-12T03:24:36;103751.50;;;8.86;67.09
48614;BME280;34408;51.426;5.444;2023-02-12T03:27:09;103753.75;;;8.81;66.90
48614;BME280;34408;51.426;5.444;2023-02-12T03:29:39;103753.47;;;8.84;67.34
48614;BME280;34408;51.426;5.444;2023-02-12T03:32:17;103756.16;;;8.84;67.19
48614;BME280;34408;51.426;5.444;2023-02-12T03:34:54;103758.84;;;8.84;67.38
48614;BME280;34408;51.426;5.444;2023-02-12T03:37:28;103747.28;;;8.84;66.98
48614;BME280;34408;51.426;5.444;2023-02-12T03:40:02;103752.63;;;8.84;66.56
48614;BME280;34408;51.426;5.444;2023-02-12T03:42:38;103744.03;;;8.80;67.02
48614;BME280;34408;51.426;5.444;2023-02-12T03:45:18;103747.28;;;8.84;66.48
48614;BME280;34408;51.426;5.444;2023-02-12T03:48:00;103747.28;;;8.84;67.06
48614;BME280;34408;51.426;5.444;2023-02-12T03:50:34;103750.81;;;8.84;67.11
48614;BME280;34408;51.426;5.444;2023-02-12T03:53:04;103749.09;;;8.83;66.80
48614;BME280;34408;51.426;5.444;2023-02-12T03:55:35;103754.47;;;8.83;66.64
48614;BME280;34408;51.426;5.444;2023-02-12T03:58:08;103751.06;;;8.81;67.39
48614;BME280;34408;51.426;5.444;2023-02-12T04:00:38;103750.09;;;8.82;67.38
48614;BME280;34408;51.426;5.444;2023-02-12T04:03:08;103755.59;;;8.80;66.76
48614;BME280;34408;51.426;5.444;2023-02-12T04:05:36;103759.13;;;8.81;66.63
48614;BME280;34408;51.426;5.444;2023-02-12T04:08:07;103748.41;;;8.81;67.10
48614;BME280;34408;51.426;5.444;2023-02-12T04:10:41;103756.44;;;8.81;66.68
48614;BME280;34408;51.426;5.444;2023-02-12T04:13:18;103755.59;;;8.80;67.04
48614;BME280;34408;51.426;5.444;2023-02-12T04:16:01;103751.06;;;8.81;67.30
48614;BME280;34408;51.426;5.444;2023-02-12T04:18:39;103752.91;;;8.80;66.97
48614;BME280;34408;51.426;5.444;2023-02-12T04:21:12;103751.34;;;8.78;66.53
48614;BME280;34408;51.426;5.444;2023-02-12T04:23:57;103757.44;;;8.80;66.87
48614;BME280;34408;51.426;5.444;2023-02-12T04:26:35;103764.63;;;8.79;66.47
48614;BME280;34408;51.426;5.444;2023-02-12T04:29:16;103769.13;;;8.79;67.37
48614;BME280;34408;51.426;5.444;2023-02-12T04:31:48;103776.34;;;8.78;66.87
48614;BME280;34408;51.426;5.444;2023-02-12T04:34:25;103782.53;;;8.79;67.54
48614;BME280;34408;51.426;5.444;2023-02-12T04:37:02;103778.88;;;8.80;66.80
48614;BME280;34408;51.426;5.444;2023-02-12T04:39:35;103781.56;;;8.80;67.23
48614;BME280;34408;51.426;5.444;2023-02-12T04:42:04;103774.50;;;8.79;67.31
48614;BME280;34408;51.426;5.444;2023-02-12T04:44:34;103775.50;;;8.78;66.98
48614;BME280;34408;51.426;5.444;2023-02-12T04:47:03;103768.97;;;8.71;66.79
48614;BME280;34408;51.426;5.444;2023-02-12T04:49:32;103778.88;;;8.80;67.00
48614;BME280;34408;51.426;5.444;2023-02-12T04:52:00;103783.41;;;8.79;66.77
48614;BME280;34408;51.426;5.444;2023-02-12T04:54:28;103773.66;;;8.78;67.04
48614;BME280;34408;51.426;5.444;2023-02-12T04:56:56;103777.19;;;8.79;67.62
48614;BME280;34408;51.426;5.444;2023-02-12T04:59:23;103779.00;;;8.78;67.40
48614;BME280;34408;51.426;5.444;2023-02-12T05:01:52;103780.84;;;8.78;66.92
48614;BME280;34408;51.426;5.444;2023-02-12T05:04:19;103771.25;;;8.75;66.77
48614;BME280;34408;51.426;5.444;2023-02-12T05:06:48;103780.84;;;8.78;66.83
48614;BME280;34408;51.426;5.444;2023-02-12T05:09:18;103774.63;;;8.77;67.24
48614;BME280;34408;51.426;5.444;2023-02-12T05:11:46;103780.00;;;8.77;66.53
48614;BME280;34408;51.426;5.444;2023-02-12T05:14:14;103777.31;;;8.77;66.96
48614;BME280;34408;51.426;5.444;2023-02-12T05:16:41;103787.06;;;8.78;67.35
48614;BME280;34408;51.426;5.444;2023-02-12T05:19:09;103785.38;;;8.77;67.38
48614;BME280;34408;51.426;5.444;2023-02-12T05:21:37;103781.84;;;8.77;66.74
48614;BME280;34408;51.426;5.444;2023-02-12T05:24:07;103785.38;;;8.77;66.93
48614;BME280;34408;51.426;5.444;2023-02-12T05:26:35;103784.53;;;8.77;67.20
48614;BME280;34408;51.426;5.444;2023-02-12T05:29:03;103786.34;;;8.76;66.40
48614;BME280;34408;51.426;5.444;2023-02-12T05:31:31;103784.53;;;8.77;66.83
48614;BME280;34408;51.426;5.444;2023-02-12T05:33:58;103790.72;;;8.77;66.69
48614;BME280;34408;51.426;5.444;2023-02-12T05:36:26;103783.09;;;8.73;66.87
48614;BME280;34408;51.426;5.444;2023-02-12T05:38:57;103786.34;;;8.76;66.83
48614;BME280;34408;51.426;5.444;2023-02-12T05:41:26;103795.25;;;8.77;67.48
48614;BME280;34408;51.426;5.444;2023-02-12T05:43:54;103790.72;;;8.77;66.30
48614;BME280;34408;51.426;5.444;2023-02-12T05:46:22;103793.41;;;8.77;67.41
48614;BME280;34408;51.426;5.444;2023-02-12T05:48:50;103795.38;;;8.75;66.87
48614;BME280;34408;51.426;5.444;2023-02-12T05:51:19;103788.19;;;8.76;66.67
48614;BME280;34408;51.426;5.444;2023-02-12T05:53:49;103788.19;;;8.76;66.76
48614;BME280;34408;51.426;5.444;2023-02-12T05:56:19;103798.06;;;8.75;66.77
48614;BME280;34408;51.426;5.444;2023-02-12T05:58:52;103788.47;;;8.73;67.00
48614;BME280;34408;51.426;5.444;2023-02-12T06:01:23;103790.03;;;8.75;67.21
48614;BME280;34408;51.426;5.444;2023-02-12T06:03:52;103792.69;;;8.75;67.51
48614;BME280;34408;51.426;5.444;2023-02-12T06:06:20;103791.00;;;8.74;66.87
48614;BME280;34408;51.426;5.444;2023-02-12T06:08:48;103794.66;;;8.73;66.75
48614;BME280;34408;51.426;5.444;2023-02-12T06:11:16;103801.88;;;8.73;67.03
48614;BME280;34408;51.426;5.444;2023-02-12T06:13:44;103792.97;;;8.72;67.10
48614;BME280;34408;51.426;5.444;2023-02-12T06:16:18;103799.19;;;8.73;66.76
48614;BME280;34408;51.426;5.444;2023-02-12T06:18:47;103802.00;;;8.71;66.85
48614;BME280;34408;51.426;5.444;2023-02-12T06:21:16;103796.63;;;8.71;66.84
48614;BME280;34408;51.426;5.444;2023-02-12T06:23:44;103797.50;;;8.72;66.66
48614;BME280;34408;51.426;5.444;2023-02-12T06:26:12;103794.94;;;8.70;66.83
48614;BME280;34408;51.426;5.444;2023-02-12T06:28:39;103806.38;;;8.72;66.68
48614;BME280;34408;51.426;5.444;2023-02-12T06:31:17;103794.22;;;8.68;67.38
48614;BME280;34408;51.426;5.444;2023-02-12T06:33:46;103805.53;;;8.72;67.33
48614;BME280;34408;51.426;5.444;2023-02-12T06:36:15;103800.31;;;8.70;67.31
48614;BME280;34408;51.426;5.444;2023-02-12T06:38:43;103813.00;;;8.68;66.96
48614;BME280;34408;51.426;5.444;2023-02-12T06:41:11;103813.84;;;8.69;66.93
48614;BME280;34408;51.426;5.444;2023-02-12T06:43:39;103812.00;;;8.69;67.20
48614;BME280;34408;51.426;5.444;2023-02-12T06:46:07;103813.00;;;8.68;66.72
48614;BME280;34408;51.426;5.444;2023-02-12T06:48:36;103814.69;;;8.69;67.06
48614;BME280;34408;51.426;5.444;2023-02-12T06:51:05;103814.69;;;8.69;67.18
48614;BME280;34408;51.426;5.444;2023-02-12T06:53:33;103804.28;;;8.66;66.80
48614;BME280;34408;51.426;5.444;2023-02-12T06:56:02;103813.84;;;8.69;67.24
48614;BME280;34408;51.426;5.444;2023-02-12T06:58:31;103822.88;;;8.68;67.27
48614;BME280;34408;51.426;5.444;2023-02-12T07:01:07;103818.50;;;8.67;67.47
48614;BME280;34408;51.426;5.444;2023-02-12T07:03:39;103814.16;;;8.66;67.02
48614;BME280;34408;51.426;5.444;2023-02-12T07:06:08;103830.06;;;8.67;67.42
48614;BME280;34408;51.426;5.444;2023-02-12T07:08:36;103834.59;;;8.67;67.20
48614;BME280;34408;51.426;5.444;2023-02-12T07:11:04;103821.75;;;8.61;67.28
48614;BME280;34408;51.426;5.444;2023-02-12T07:13:33;103834.59;;;8.67;66.74
48614;BME280;34408;51.426;5.444;2023-02-12T07:16:04;103833.91;;;8.65;67.15
48614;BME280;34408;51.426;5.444;2023-02-12T07:18:33;103842.34;;;8.60;66.77
48614;BME280;34408;51.426;5.444;2023-02-12T07:21:04;103834.19;;;8.62;67.54
48614;BME280;34408;51.426;5.444;2023-02-12T07:23:32;103831.50;;;8.62;67.36
48614;BME280;34408;51.426;5.444;2023-02-12T07:26:02;103830.38;;;8.64;67.37
48614;BME280;34408;51.426;5.444;2023-02-12T07:28:31;103831.38;;;8.63;67.54
48614;BME280;34408;51.426;5.444;2023-02-12T07:31:01;103835.75;;;8.64;67.32
48614;BME280;34408;51.426;5.444;2023-02-12T07:33:33;103839.94;;;8.67;67.27
48614;BME280;34408;51.426;5.444;2023-02-12T07:36:03;103840.41;;;8.81;66.74
48614;BME280;34408;51.426;5.444;2023-02-12T07:38:31;103844.81;;;8.92;66.21
48614;BME280;34408;51.426;5.444;2023-02-12T07:41:10;103847.81;;;9.08;65.52
48614;BME280;34408;51.426;5.444;2023-02-12T07:43:38;103847.72;;;9.29;64.66
48614;BME280;34408;51.426;5.444;2023-02-12T07:46:08;103851.53;;;9.46;64.23
48614;BME280;34408;51.426;5.444;2023-02-12T07:48:36;103853.81;;;9.60;63.71
48614;BME280;34408;51.426;5.444;2023-02-12T07:51:08;103853.22;;;9.76;63.45
48614;BME280;34408;51.426;5.444;2023-02-12T07:53:36;103842.47;;;9.86;62.75
48614;BME280;34408;51.426;5.444;2023-02-12T07:56:06;103851.50;;;10.04;62.40
48614;BME280;34408;51.426;5.444;2023-02-12T07:58:34;103849.34;;;10.07;62.08
48614;BME280;34408;51.426;5.444;2023-02-12T08:01:13;103856.56;;;10.07;62.40
48614;BME280;34408;51.426;5.444;2023-02-12T08:03:41;103855.88;;;9.95;62.80
48614;BME280;34408;51.426;5.444;2023-02-12T08:06:12;103861.69;;;9.81;63.08
48614;BME280;34408;51.426;5.444;2023-02-12T08:08:41;103849.13;;;9.62;63.34
48614;BME280;34408;51.426;5.444;2023-02-12T08:11:10;103854.50;;;9.53;64.38
48614;BME280;34408;51.426;5.444;2023-02-12T08:13:39;103856.19;;;9.44;64.44
48614;BME280;34408;51.426;5.444;2023-02-12T08:16:09;103862.13;;;9.38;64.20
48614;BME280;34408;51.426;5.444;2023-02-12T08:18:38;103861.13;;;9.29;64.84
48614;BME280;34408;51.426;5.444;2023-02-12T08:21:07;103864.94;;;9.27;64.78
48614;BME280;34408;51.426;5.444;2023-02-12T08:23:36;103867.06;;;9.23;65.15
48614;BME280;34408;51.426;5.444;2023-02-12T08:26:06;103861.25;;;9.18;65.08
48614;BME280;34408;51.426;5.444;2023-02-12T08:28:36;103860.69;;;9.14;65.04
48614;BME280;34408;51.426;5.444;2023-02-12T08:31:07;103862.78;;;9.11;65.62
48614;BME280;34408;51.426;5.444;2023-02-12T08:33:36;103862.38;;;9.06;65.47
48614;BME280;34408;51.426;5.444;2023-02-12T08:36:06;103867.72;;;9.06;66.24
48614;BME280;34408;51.426;5.444;2023-02-12T08:38:37;103859.97;;;9.03;65.76
48614;BME280;34408;51.426;5.444;2023-02-12T08:41:07;103870.81;;;9.01;65.59
48614;BME280;34408;51.426;5.444;2023-02-12T08:43:35;103866.00;;;8.95;66.02
48614;BME280;34408;51.426;5.444;2023-02-12T08:46:05;103866.00;;;8.95;66.24
48614;BME280;34408;51.426;5.444;2023-02-12T08:48:33;103866.16;;;8.94;65.79
48614;BME280;34408;51.426;5.444;2023-02-12T08:51:06;103868.13;;;8.92;66.32
48614;BME280;34408;51.426;5.444;2023-02-12T08:53:36;103871.06;;;8.89;66.28
48614;BME280;34408;51.426;5.444;2023-02-12T08:56:04;103875.44;;;8.90;66.07
48614;BME280;34408;51.426;5.444;2023-02-12T08:58:33;103873.75;;;8.89;66.05
48614;BME280;34408;51.426;5.444;2023-02-12T09:01:01;103872.91;;;8.88;66.58
48614;BME280;34408;51.426;5.444;2023-02-12T09:03:30;103876.56;;;8.87;66.18
48614;BME280;34408;51.426;5.444;2023-02-12T09:05:57;103874.88;;;8.86;66.78
48614;BME280;34408;51.426;5.444;2023-02-12T09:08:29;103879.38;;;8.86;66.13
48614;BME280;34408;51.426;5.444;2023-02-12T09:10:58;103872.19;;;8.86;66.39
48614;BME280;34408;51.426;5.444;2023-02-12T09:13:26;103881.22;;;8.85;66.78
48614;BME280;34408;51.426;5.444;2023-02-12T09:15:54;103876.84;;;8.84;66.53
48614;BME280;34408;51.426;5.444;2023-02-12T09:18:22;103882.22;;;8.84;66.55
48614;BME280;34408;51.426;5.444;2023-02-12T09:20:49;103880.50;;;8.83;66.00
48614;BME280;34408;51.426;5.444;2023-02-12T09:23:17;103884.88;;;8.84;66.44
48614;BME280;34408;51.426;5.444;2023-02-12T09:25:45;103887.72;;;8.82;66.65
48614;BME280;34408;51.426;5.444;2023-02-12T09:28:14;103888.56;;;8.83;66.14
48614;BME280;34408;51.426;5.444;2023-02-12T09:30:42;103891.25;;;8.83;65.84
48614;BME280;34408;51.426;5.444;2023-02-12T09:33:10;103880.19;;;8.76;66.26
48614;BME280;34408;51.426;5.444;2023-02-12T09:35:38;103885.16;;;8.81;65.68
48614;BME280;34408;51.426;5.444;2023-02-12T09:38:07;103891.25;;;8.83;66.30
48614;BME280;34408;51.426;5.444;2023-02-12T09:40:39;103888.69;;;8.81;66.21
48614;BME280;34408;51.426;5.444;2023-02-12T09:43:17;103896.59;;;8.83;65.89
48614;BME280;34408;51.426;5.444;2023-02-12T09:45:53;103886.72;;;8.84;65.53
48614;BME280;34408;51.426;5.444;2023-02-12T09:48:34;103885.16;;;8.81;66.05
48614;BME280;34408;51.426;5.444;2023-02-12T09:51:08;103887.00;;;8.80;66.39
48614;BME280;34408;51.426;5.444;2023-02-12T09:53:39;103891.25;;;8.83;65.71
48614;BME280;34408;51.426;5.444;2023-02-12T09:56:11;103889.53;;;8.82;66.38
48614;BME280;34408;51.426;5.444;2023-02-12T09:58:45;103899.28;;;8.83;66.08
48614;BME280;34408;51.426;5.444;2023-02-12T10:01:16;103888.56;;;8.83;65.94
48614;BME280;34408;51.426;5.444;2023-02-12T10:03:45;103887.56;;;8.84;65.93
48614;BME280;34408;51.426;5.444;2023-02-12T10:06:16;103893.91;;;8.83;65.99
48614;BME280;34408;51.426;5.444;2023-02-12T10:08:58;103896.47;;;8.85;66.00
48614;BME280;34408;51.426;5.444;2023-02-12T10:11:36;103898.28;;;8.84;66.09
48614;BME280;34408;51.426;5.444;2023-02-12T10:14:39;103900.13;;;8.84;65.85
48614;BME280;34408;51.426;5.444;2023-02-12T10:17:16;103905.34;;;8.85;65.40
48614;BME280;34408;51.426;5.444;2023-02-12T10:20:06;103896.47;;;8.85;65.21
48614;BME280;34408;51.426;5.444;2023-02-12T10:22:44;103899.16;;;8.85;65.87
48614;BME280;34408;51.426;5.444;2023-02-12T10:25:26;103904.38;;;8.86;65.96
48614;BME280;34408;51.426;5.444;2023-02-12T10:27:56;103899.88;;;8.87;65.58
48614;BME280;34408;51.426;5.444;2023-02-12T10:30:36;103908.75;;;8.87;65.48
48614;BME280;34408;51.426;5.444;2023-02-12T10:33:13;103901.56;;;8.88;64.78
48614;BME280;34408;51.426;5.444;2023-02-12T10:35:46;103909.47;;;8.89;65.57
48614;BME280;34408;51.426;5.444;2023-02-12T10:38:21;103901.41;;;8.89;65.33
48614;BME280;34408;51.426;5.444;2023-02-12T10:40:50;103890.38;;;8.82;65.18
48614;BME280;34408;51.426;5.444;2023-02-12T10:43:20;103905.81;;;8.90;64.90
48614;BME280;34408;51.426;5.444;2023-02-12T10:45:49;103902.28;;;8.90;64.95
48614;BME280;34408;51.426;5.444;2023-02-12T10:48:20;103901.28;;;8.91;64.92
48614;BME280;34408;51.426;5.444;2023-02-12T10:51:01;103899.59;;;8.90;65.60
48614;BME280;34408;51.426;5.444;2023-02-12T10:53:32;103896.78;;;8.91;65.42
48614;BME280;34408;51.426;5.444;2023-02-12T10:56:08;103903.84;;;8.92;65.45
48614;BME280;34408;51.426;5.444;2023-02-12T10:58:39;103901.16;;;8.92;64.89
48614;BME280;34408;51.426;5.444;2023-02-12T11:01:16;103892.25;;;8.92;65.20
48614;BME280;34408;51.426;5.444;2023-02-12T11:03:44;103897.47;;;8.93;65.63
48614;BME280;34408;51.426;5.444;2023-02-12T11:06:14;103887.59;;;8.94;64.94
48614;BME280;34408;51.426;5.444;2023-02-12T11:08:42;103902.56;;;8.96;64.81
48614;BME280;34408;51.426;5.444;2023-02-12T11:11:12;103894.66;;;8.95;64.99
48614;BME280;34408;51.426;5.444;2023-02-12T11:13:44;103892.84;;;8.95;65.12
48614;BME280;34408;51.426;5.444;2023-02-12T11:16:26;103893.69;;;8.96;64.96
48614;BME280;34408;51.426;5.444;2023-02-12T11:18:57;103886.47;;;8.96;64.99
48614;BME280;34408;51.426;5.444;2023-02-12T11:21:25;103885.50;;;8.97;65.10
48614;BME280;34408;51.426;5.444;2023-02-12T11:23:53;103883.81;;;8.96;64.61
48614;BME280;34408;51.426;5.444;2023-02-12T11:26:24;103884.50;;;8.98;64.89
48614;BME280;34408;51.426;5.444;2023-02-12T11:28:54;103881.81;;;8.98;64.74
48614;BME280;34408;51.426;5.444;2023-02-12T11:31:25;103876.47;;;8.98;65.47
48614;BME280;34408;51.426;5.444;2023-02-12T11:34:11;103883.38;;;9.01;65.06
48614;BME280;34408;51.426;5.444;2023-02-12T11:36:42;103879.84;;;9.00;65.59
48614;BME280;34408;51.426;5.444;2023-02-12T11:39:19;103875.34;;;9.01;65.73
48614;BME280;34408;51.426;5.444;2023-02-12T11:41:52;103873.50;;;9.01;65.99
48614;BME280;34408;51.426;5.444;2023-02-12T11:44:24;103866.31;;;9.02;65.14
48614;BME280;34408;51.426;5.444;2023-02-12T11:46:56;103862.63;;;9.03;65.41
48614;BME280;34408;51.426;5.444;2023-02-12T11:49:29;103866.03;;;9.05;65.68
48614;BME280;34408;51.426;5.444;2023-02-12T11:52:00;103864.63;;;9.01;65.82
48614;BME280;34408;51.426;5.444;2023-02-12T11:54:34;103862.63;;;9.03;65.56
48614;BME280;34408;51.426;5.444;2023-02-12T11:57:03;103866.03;;;9.05;66.20
48614;BME280;34408;51.426;5.444;2023-02-12T11:59:34;103867.19;;;9.12;65.79
48614;BME280;34408;51.426;5.444;2023-02-12T12:02:16;103863.09;;;9.27;64.96
48614;BME280;34408;51.426;5.444;2023-02-12T12:04:51;103855.22;;;9.45;64.74
48614;BME280;34408;51.426;5.444;2023-02-12T12:07:24;103858.88;;;9.63;63.74
48614;BME280;34408;51.426;5.444;2023-02-12T12:09:57;103853.78;;;9.79;62.88
48614;BME280;34408;51.426;5.444;2023-02-12T12:12:34;103849.53;;;9.96;62.73
48614;BME280;34408;51.426;5.444;2023-02-12T12:15:09;103848.94;;;10.12;61.98
48614;BME280;34408;51.426;5.444;2023-02-12T12:18:11;103843.69;;;10.30;61.36
48614;BME280;34408;51.426;5.444;2023-02-12T12:21:17;103836.50;;;10.48;60.79
48614;BME280;34408;51.426;5.444;2023-02-12T12:23:51;103835.31;;;10.60;60.42
48614;BME280;34408;51.426;5.444;2023-02-12T12:26:23;103829.88;;;10.70;60.27
48614;BME280;34408;51.426;5.444;2023-02-12T12:28:56;103830.53;;;10.82;59.70
48614;BME280;34408;51.426;5.444;2023-02-12T12:31:30;103831.78;;;10.87;59.58
48614;BME280;34408;51.426;5.444;2023-02-12T12:34:05;103832.16;;;10.92;59.56
48614;BME280;34408;51.426;5.444;2023-02-12T12:36:48;103824.78;;;10.94;59.04
48614;BME280;34408;51.426;5.444;2023-02-12T12:39:28;103820.25;;;10.95;58.91
48614;BME280;34408;51.426;5.444;2023-02-12T12:42:19;103820.50;;;11.01;58.79
48614;BME280;34408;51.426;5.444;2023-02-12T12:45:13;103820.19;;;11.04;59.09
48614;BME280;34408;51.426;5.444;2023-02-12T12:47:58;103820.88;;;11.06;58.96
48614;BME280;34408;51.426;5.444;2023-02-12T12:50:44;103819.59;;;11.11;59.02
48614;BME280;34408;51.426;5.444;2023-02-12T12:53:23;103807.97;;;11.10;58.73
48614;BME280;34408;51.426;5.444;2023-02-12T12:56:05;103797.75;;;11.14;58.76
48614;BME280;34408;51.426;5.444;2023-02-12T12:58:57;103798.28;;;11.17;58.41
48614;BME280;34408;51.426;5.444;2023-02-12T13:01:44;103796.97;;;11.21;57.92
48614;BME280;34408;51.426;5.444;2023-02-12T13:04:51;103796.75;;;11.15;58.42
48614;BME280;34408;51.426;5.444;2023-02-12T13:07:40;103775.91;;;10.99;58.84
48614;BME280;34408;51.426;5.444;2023-02-12T13:10:16;103797.63;;;10.88;59.29
48614;BME280;34408;51.426;5.444;2023-02-12T13:13:00;103788.69;;;10.69;59.95
48614;BME280;34408;51.426;5.444;2023-02-12T13:15:35;103782.28;;;10.53;60.63
48614;BME280;34408;51.426;5.444;2023-02-12T13:18:13;103785.16;;;10.41;60.54
48614;BME280;34408;51.426;5.444;2023-02-12T13:20:48;103783.41;;;10.32;60.39
48614;BME280;34408;51.426;5.444;2023-02-12T13:23:26;103785.81;;;10.26;60.66
48614;BME280;34408;51.426;5.444;2023-02-12T13:26:04;103778.47;;;10.18;60.76
48614;BME280;34408;51.426;5.444;2023-02-12T13:28:36;103780.91;;;10.11;61.22